createdAt,value
2018-09-14T00:01:19.352Z,20.89
2018-09-14T00:03:47.054Z,20.88
2018-09-14T00:06:15.294Z,20.87
2018-09-14T00:08:43.340Z,20.84
2018-09-14T00:11:11.346Z,20.83
2018-09-14T00:13:39.012Z,20.81
2018-09-14T00:16:06.956Z,20.81
2018-09-14T00:18:34.913Z,20.79
2018-09-14T00:21:02.563Z,20.79
2018-09-14T00:23:30.525Z,20.77
2018-09-14T00:25:58.244Z,20.76
2018-09-14T00:28:25.939Z,20.75
2018-09-14T00:30:54.198Z,20.73
2018-09-14T00:33:21.841Z,20.72
2018-09-14T00:35:49.755Z,20.70
2018-09-14T00:38:17.418Z,20.68
2018-09-14T00:40:45.230Z,20.67
2018-09-14T00:43:13.427Z,20.66
2018-09-14T00:45:41.505Z,20.65
2018-09-14T00:48:09.170Z,20.65
2018-09-14T00:50:36.849Z,20.63
2018-09-14T00:53:04.535Z,20.63
2018-09-14T00:55:33.025Z,20.62
2018-09-14T00:58:00.702Z,20.62
2018-09-14T01:00:28.895Z,20.60
2018-09-14T01:02:56.581Z,20.58
2018-09-14T01:05:24.503Z,20.59
2018-09-14T01:07:52.211Z,20.57
2018-09-14T01:10:19.885Z,20.58
2018-09-14T01:12:47.910Z,20.56
2018-09-14T01:15:15.682Z,20.55
2018-09-14T01:17:43.372Z,20.52
2018-09-14T01:20:11.380Z,20.53
2018-09-14T01:22:39.370Z,20.55
2018-09-14T01:25:07.681Z,20.51
2018-09-14T01:27:35.383Z,20.50
2018-09-14T01:30:03.350Z,20.49
2018-09-14T01:32:31.013Z,20.48
2018-09-14T01:34:58.679Z,20.46
2018-09-14T01:37:26.701Z,20.46
2018-09-14T01:39:54.629Z,20.43
2018-09-14T01:42:22.550Z,20.42
2018-09-14T01:44:50.496Z,20.42
2018-09-14T01:47:18.462Z,20.41
2018-09-14T01:49:46.406Z,20.40
2018-09-14T01:52:14.320Z,20.39
2018-09-14T01:54:41.958Z,20.37
2018-09-14T01:57:09.676Z,20.39
2018-09-14T01:59:37.452Z,20.38
2018-09-14T02:02:05.115Z,20.36
2018-09-14T02:04:33.184Z,20.38
2018-09-14T02:07:01.164Z,20.38
2018-09-14T02:09:29.140Z,20.35
2018-09-14T02:11:56.832Z,20.34
2018-09-14T02:14:24.508Z,20.35
2018-09-14T02:16:52.510Z,20.33
2018-09-14T02:19:20.505Z,20.33
2018-09-14T02:21:48.134Z,20.33
2018-09-14T02:24:16.033Z,20.32
2018-09-14T02:26:44.374Z,20.29
2018-09-14T02:29:12.070Z,20.27
2018-09-14T02:31:40.040Z,20.25
2018-09-14T02:34:08.087Z,20.23
2018-09-14T02:36:36.144Z,20.23
2018-09-14T02:39:05.563Z,20.25
2018-09-14T02:41:33.195Z,20.24
2018-09-14T02:44:00.897Z,20.22
2018-09-14T02:46:28.874Z,20.22
2018-09-14T02:48:56.943Z,20.20
2018-09-14T02:51:24.915Z,20.19
2018-09-14T02:53:52.711Z,20.18
2018-09-14T02:56:20.413Z,20.17
2018-09-14T02:58:48.625Z,20.17
2018-09-14T03:01:16.424Z,20.15
2018-09-14T03:03:44.289Z,20.13
2018-09-14T03:06:12.244Z,20.12
2018-09-14T03:08:39.915Z,20.13
2018-09-14T03:11:07.888Z,20.10
2018-09-14T03:13:35.522Z,20.07
2018-09-14T03:16:03.205Z,20.06
2018-09-14T03:18:30.938Z,20.06
2018-09-14T03:20:58.946Z,20.04
2018-09-14T03:23:26.608Z,20.03
2018-09-14T03:25:54.561Z,20.03
2018-09-14T03:28:22.219Z,20.03
2018-09-14T03:30:49.854Z,20.02
2018-09-14T03:33:17.568Z,20.00
2018-09-14T03:35:45.506Z,20.00
2018-09-14T03:38:13.538Z,19.98
2018-09-14T03:40:41.397Z,19.98
2018-09-14T03:43:09.327Z,19.99
2018-09-14T03:45:37.274Z,20.00
2018-09-14T03:48:04.955Z,20.02
2018-09-14T03:50:33.180Z,19.99
2018-09-14T03:53:01.060Z,19.96
2018-09-14T03:55:28.769Z,19.95
2018-09-14T03:57:56.421Z,19.95
2018-09-14T04:00:24.518Z,19.92
2018-09-14T04:02:52.257Z,19.90
2018-09-14T04:05:20.144Z,19.87
2018-09-14T04:07:47.916Z,19.87
2018-09-14T04:10:15.552Z,19.88
2018-09-14T04:12:43.524Z,19.86
2018-09-14T04:15:11.488Z,19.84
2018-09-14T04:17:39.468Z,19.82
2018-09-14T04:20:07.117Z,19.80
2018-09-14T04:22:35.273Z,19.82
2018-09-14T04:25:02.951Z,19.80
2018-09-14T04:27:31.291Z,19.83
2018-09-14T04:29:59.389Z,19.86
2018-09-14T04:32:27.399Z,19.84
2018-09-14T04:34:55.144Z,19.85
2018-09-14T04:37:23.291Z,19.84
2018-09-14T04:39:51.564Z,19.81
2018-09-14T04:42:19.300Z,19.78
2018-09-14T04:44:47.281Z,19.75
2018-09-14T04:47:15.498Z,19.75
2018-09-14T04:49:43.688Z,19.74
2018-09-14T04:52:11.762Z,19.72
2018-09-14T04:54:39.423Z,19.71
2018-09-14T04:57:07.064Z,19.68
2018-09-14T04:59:35.054Z,19.67
2018-09-14T05:02:03.708Z,19.66
2018-09-14T05:04:31.690Z,19.66
2018-09-14T05:06:59.619Z,19.67
2018-09-14T05:09:27.307Z,19.66
2018-09-14T05:11:54.995Z,19.70
2018-09-14T05:14:22.896Z,19.69
2018-09-14T05:16:50.541Z,19.67
2018-09-14T05:19:18.274Z,19.67
2018-09-14T05:21:46.168Z,19.65
2018-09-14T05:24:15.647Z,19.68
2018-09-14T05:26:43.493Z,19.69
2018-09-14T05:29:12.392Z,19.70
2018-09-14T05:31:40.173Z,19.71
2018-09-14T05:34:08.375Z,19.75
2018-09-14T05:36:36.075Z,19.77
2018-09-14T05:39:05.553Z,19.78
2018-09-14T05:41:33.238Z,19.79
2018-09-14T05:44:01.158Z,19.79
2018-09-14T05:46:28.899Z,19.81
2018-09-14T05:48:57.138Z,19.82
2018-09-14T05:51:24.888Z,19.85
2018-09-14T05:53:53.292Z,19.87
2018-09-14T05:56:22.279Z,19.91
2018-09-14T05:58:50.267Z,19.91
2018-09-14T06:01:18.400Z,19.92
2018-09-14T06:03:46.061Z,19.91
2018-09-14T06:06:13.959Z,19.92
2018-09-14T06:08:42.272Z,19.91
2018-09-14T06:11:09.904Z,19.92
2018-09-14T06:13:38.014Z,19.91
2018-09-14T06:16:06.332Z,19.92
2018-09-14T06:18:33.982Z,19.92
2018-09-14T06:21:01.782Z,19.92
2018-09-14T06:23:29.442Z,19.94
2018-09-14T06:25:57.692Z,19.95
2018-09-14T06:28:25.650Z,20.00
2018-09-14T06:30:53.424Z,20.00
2018-09-14T06:33:21.178Z,20.00
2018-09-14T06:35:48.852Z,19.98
2018-09-14T06:38:16.836Z,19.96
2018-09-14T06:40:45.149Z,19.99
2018-09-14T06:43:13.398Z,19.94
2018-09-14T06:45:41.134Z,19.96
2018-09-14T06:48:09.379Z,19.98
2018-09-14T06:50:37.022Z,20.00
2018-09-14T06:53:04.647Z,19.98
2018-09-14T06:55:32.276Z,20.01
2018-09-14T06:58:00.219Z,20.03
2018-09-14T07:00:28.557Z,20.02
2018-09-14T07:02:56.866Z,20.04
2018-09-14T07:05:25.425Z,20.07
2018-09-14T07:07:53.114Z,20.10
2018-09-14T07:10:21.197Z,20.11
2018-09-14T07:12:49.376Z,20.03
2018-09-14T07:15:16.998Z,20.14
2018-09-14T07:17:44.976Z,20.14
2018-09-14T07:20:13.092Z,20.14
2018-09-14T07:22:40.746Z,20.13
2018-09-14T07:25:08.726Z,20.15
2018-09-14T07:27:36.759Z,20.18
2018-09-14T07:30:05.281Z,20.20
2018-09-14T07:32:33.254Z,20.22
2018-09-14T07:35:01.279Z,20.22
2018-09-14T07:37:29.184Z,20.23
2018-09-14T07:39:57.158Z,20.23
2018-09-14T07:42:24.874Z,20.26
2018-09-14T07:44:52.483Z,20.28
2018-09-14T07:47:20.148Z,20.28
2018-09-14T07:49:48.134Z,20.29
2018-09-14T07:52:15.813Z,20.29
2018-09-14T07:54:43.726Z,20.32
2018-09-14T07:57:11.973Z,20.33
2018-09-14T07:59:39.703Z,20.35
2018-09-14T08:02:07.570Z,20.36
2018-09-14T08:04:35.569Z,20.37
2018-09-14T08:07:03.503Z,20.38
2018-09-14T08:09:31.381Z,20.39
2018-09-14T08:11:59.412Z,20.41
2018-09-14T08:14:27.613Z,20.41
2018-09-14T08:16:55.450Z,20.41
2018-09-14T08:19:23.489Z,20.42
2018-09-14T08:21:51.936Z,20.45
2018-09-14T08:24:19.515Z,20.46
2018-09-14T08:26:47.491Z,20.50
2018-09-14T08:29:15.349Z,20.54
2018-09-14T08:31:43.092Z,20.58
2018-09-14T08:34:10.737Z,20.59
2018-09-14T08:36:38.699Z,20.63
2018-09-14T08:39:08.898Z,20.64
2018-09-14T08:41:37.241Z,20.66
2018-09-14T08:44:05.153Z,20.66
2018-09-14T08:46:33.089Z,20.68
2018-09-14T08:49:01.126Z,20.70
2018-09-14T08:51:28.850Z,20.70
2018-09-14T08:53:56.738Z,20.73
2018-09-14T08:56:24.734Z,20.75
2018-09-14T08:58:52.564Z,20.77
2018-09-14T09:01:20.222Z,20.79
2018-09-14T09:03:48.151Z,20.80
2018-09-14T09:06:15.905Z,20.82
2018-09-14T09:08:43.874Z,20.86
2018-09-14T09:11:11.838Z,20.90
2018-09-14T09:13:39.766Z,20.93
2018-09-14T09:16:08.044Z,20.98
2018-09-14T09:18:35.686Z,21.06
2018-09-14T09:21:03.310Z,21.12
2018-09-14T09:23:31.043Z,21.17
2018-09-14T09:25:58.737Z,21.20
2018-09-14T09:28:26.442Z,21.22
2018-09-14T09:30:55.513Z,21.25
2018-09-14T09:33:23.262Z,21.28
2018-09-14T09:35:50.939Z,21.32
2018-09-14T09:38:18.693Z,21.32
2018-09-14T09:40:46.377Z,21.33
2018-09-14T09:43:14.158Z,21.36
2018-09-14T09:45:41.891Z,21.38
2018-09-14T09:48:09.573Z,21.41
2018-09-14T09:50:37.389Z,21.42
2018-09-14T09:53:06.561Z,21.45
2018-09-14T09:55:34.263Z,21.44
2018-09-14T09:58:01.932Z,21.39
2018-09-14T10:00:35.318Z,21.41
2018-09-14T10:03:08.562Z,21.43
2018-09-14T10:05:41.706Z,21.47
2018-09-14T10:08:09.413Z,21.49
2018-09-14T10:10:37.024Z,21.51
2018-09-14T10:13:05.218Z,21.52
2018-09-14T10:15:33.289Z,21.52
2018-09-14T10:18:01.094Z,21.51
2018-09-14T10:20:29.387Z,21.48
2018-09-14T10:22:57.050Z,21.48
2018-09-14T10:25:24.719Z,21.47
2018-09-14T10:27:52.940Z,21.45
2018-09-14T10:30:21.711Z,21.49
2018-09-14T10:32:49.670Z,21.51
2018-09-14T10:35:17.906Z,21.53
2018-09-14T10:37:45.569Z,21.55
2018-09-14T10:40:13.615Z,21.57
2018-09-14T10:42:41.398Z,21.58
2018-09-14T10:45:09.449Z,21.59
2018-09-14T10:47:37.094Z,21.59
2018-09-14T10:50:05.040Z,21.62
2018-09-14T10:52:33.073Z,21.64
2018-09-14T10:55:00.754Z,21.68
2018-09-14T10:57:28.375Z,21.71
2018-09-14T10:59:56.067Z,21.74
2018-09-14T11:02:23.798Z,21.76
2018-09-14T11:04:51.633Z,21.79
2018-09-14T11:07:19.920Z,21.83
2018-09-14T11:09:47.918Z,21.85
2018-09-14T11:12:16.108Z,21.89
2018-09-14T11:14:43.844Z,21.92
2018-09-14T11:17:11.706Z,21.93
2018-09-14T11:19:39.358Z,21.96
2018-09-14T11:22:07.286Z,21.99
2018-09-14T11:24:35.328Z,22.00
2018-09-14T11:27:03.003Z,22.05
2018-09-14T11:29:30.706Z,22.06
2018-09-14T11:31:58.990Z,22.09
2018-09-14T11:34:26.648Z,22.11
2018-09-14T11:36:54.374Z,22.15
2018-09-14T11:39:22.355Z,22.18
2018-09-14T11:41:50.350Z,22.22
2018-09-14T11:44:18.174Z,22.26
2018-09-14T11:46:46.172Z,22.28
2018-09-14T11:49:14.171Z,22.29
2018-09-14T11:51:41.827Z,22.33
2018-09-14T11:54:09.684Z,22.33
2018-09-14T11:56:37.592Z,22.35
2018-09-14T11:59:05.631Z,22.32
2018-09-14T12:01:33.900Z,22.30
2018-09-14T12:04:01.828Z,22.36
2018-09-14T12:06:29.911Z,22.42
2018-09-14T12:08:57.608Z,22.50
2018-09-14T12:11:25.746Z,22.55
2018-09-14T12:13:53.507Z,22.57
2018-09-14T12:16:21.393Z,22.63
2018-09-14T12:18:49.262Z,22.65
2018-09-14T12:21:17.284Z,22.64
2018-09-14T12:23:44.912Z,22.67
2018-09-14T12:26:12.521Z,22.70
2018-09-14T12:28:40.621Z,22.78
2018-09-14T12:31:08.302Z,22.85
2018-09-14T12:33:36.432Z,22.89
2018-09-14T12:36:04.701Z,22.93
2018-09-14T12:38:32.352Z,22.88
2018-09-14T12:43:51.135Z,22.78
2018-09-14T12:46:19.018Z,22.77
2018-09-14T12:48:46.791Z,22.80
2018-09-14T12:51:14.434Z,22.82
2018-09-14T12:53:42.101Z,22.85
2018-09-14T12:56:09.850Z,22.88
2018-09-14T12:58:37.771Z,22.93
2018-09-14T13:01:05.702Z,22.97
2018-09-14T13:03:33.540Z,23.01
2018-09-14T13:06:01.156Z,23.04
2018-09-14T13:08:28.916Z,23.10
2018-09-14T13:10:56.712Z,23.17
2018-09-14T13:13:24.557Z,23.24
2018-09-14T13:15:52.295Z,23.30
2018-09-14T13:18:19.884Z,23.35
2018-09-14T13:20:47.493Z,23.37
2018-09-14T13:23:15.139Z,23.37
2018-09-14T13:25:43.068Z,23.40
2018-09-14T13:28:10.714Z,23.48
2018-09-14T13:30:38.384Z,23.53
2018-09-14T13:33:06.114Z,23.63
2018-09-14T13:35:34.088Z,23.72
2018-09-14T13:38:02.021Z,23.74
2018-09-14T13:40:29.972Z,23.80
2018-09-14T13:42:57.614Z,23.90
2018-09-14T13:45:25.830Z,23.97
2018-09-14T13:47:53.468Z,24.03
2018-09-14T13:50:21.109Z,24.06
2018-09-14T13:52:49.153Z,24.07
2018-09-14T13:55:16.789Z,24.07
2018-09-14T13:57:44.967Z,24.12
2018-09-14T14:00:12.682Z,24.27
2018-09-14T14:02:40.612Z,24.43
2018-09-14T14:05:08.681Z,24.47
2018-09-14T14:07:38.485Z,24.38
2018-09-14T14:10:06.190Z,24.19
2018-09-14T14:12:33.785Z,24.04
2018-09-14T14:15:01.496Z,23.99
2018-09-14T14:17:29.491Z,24.04
2018-09-14T14:19:57.092Z,24.26
2018-09-14T14:22:24.678Z,24.32
2018-09-14T14:24:52.352Z,24.54
2018-09-14T14:27:19.971Z,24.50
2018-09-14T14:29:47.937Z,24.73
2018-09-14T14:32:15.550Z,24.81
2018-09-14T14:34:43.749Z,24.58
2018-09-14T14:37:11.628Z,24.35
2018-09-14T14:39:39.285Z,24.28
2018-09-14T14:42:06.990Z,24.52
2018-09-14T14:44:34.922Z,24.58
2018-09-14T14:47:02.900Z,24.36
2018-09-14T14:49:30.688Z,24.17
2018-09-14T14:51:58.387Z,24.05
2018-09-14T14:54:26.592Z,23.95
2018-09-14T14:56:54.217Z,23.87
2018-09-14T14:59:21.850Z,23.79
2018-09-14T15:01:50.141Z,23.75
2018-09-14T15:04:17.906Z,23.74
2018-09-14T15:06:45.677Z,23.74
2018-09-14T15:09:13.257Z,23.82
2018-09-14T15:11:41.253Z,23.86
2018-09-14T15:14:09.021Z,23.85
2018-09-14T15:16:36.891Z,23.79
2018-09-14T15:19:04.922Z,23.70
2018-09-14T15:21:33.122Z,23.65
2018-09-14T15:24:01.129Z,23.63
2018-09-14T15:26:28.805Z,23.78
2018-09-14T15:28:56.675Z,23.94
2018-09-14T15:31:24.316Z,23.83
2018-09-14T15:33:52.149Z,23.68
2018-09-14T15:36:19.788Z,23.56
2018-09-14T15:38:47.761Z,23.44
2018-09-14T15:41:15.696Z,23.35
2018-09-14T15:43:43.374Z,23.28
2018-09-14T15:46:11.038Z,23.25
2018-09-14T15:48:39.006Z,23.23
2018-09-14T15:51:06.649Z,23.21
2018-09-14T15:53:34.645Z,23.18
2018-09-14T15:56:02.911Z,23.16
2018-09-14T15:58:31.102Z,23.13
2018-09-14T16:00:58.754Z,23.11
2018-09-14T16:03:26.425Z,23.08
2018-09-14T16:05:54.403Z,23.06
2018-09-14T16:08:22.665Z,23.03
2018-09-14T16:10:50.890Z,22.99
2018-09-14T16:13:18.831Z,22.95
2018-09-14T16:15:46.489Z,22.91
2018-09-14T16:18:14.439Z,22.88
2018-09-14T16:20:42.189Z,22.85
2018-09-14T16:23:09.853Z,22.83
2018-09-14T16:25:37.492Z,22.80
2018-09-14T16:28:05.342Z,22.76
2018-09-14T16:30:33.054Z,22.74
2018-09-14T16:33:01.034Z,22.71
2018-09-14T16:35:28.726Z,22.67
2018-09-14T16:37:56.385Z,22.65
2018-09-14T16:40:24.085Z,22.61
2018-09-14T16:42:51.988Z,22.58
2018-09-14T16:45:19.906Z,22.56
2018-09-14T16:47:48.158Z,22.52
2018-09-14T16:50:16.138Z,22.50
2018-09-14T16:52:44.075Z,22.48
2018-09-14T16:55:11.750Z,22.43
2018-09-14T16:57:39.366Z,22.42
2018-09-14T17:00:07.552Z,22.40
2018-09-14T17:02:35.244Z,22.36
2018-09-14T17:05:03.161Z,22.34
2018-09-14T17:07:32.098Z,22.32
2018-09-14T17:09:59.712Z,22.29
2018-09-14T17:12:27.394Z,22.28
2018-09-14T17:14:55.000Z,22.26
2018-09-14T17:17:23.289Z,22.25
2018-09-14T17:19:51.002Z,22.23
2018-09-14T17:22:18.990Z,22.21
2018-09-14T17:24:46.917Z,22.19
2018-09-14T17:27:14.849Z,22.17
2018-09-14T17:29:42.555Z,22.16
2018-09-14T17:32:10.222Z,22.14
2018-09-14T17:34:38.102Z,22.12
2018-09-14T17:37:05.842Z,22.10
2018-09-14T17:39:34.098Z,22.08
2018-09-14T17:42:01.884Z,22.08
2018-09-14T17:44:29.694Z,22.07
2018-09-14T17:46:57.673Z,22.05
2018-09-14T17:49:25.315Z,22.03
2018-09-14T17:51:53.389Z,22.02
2018-09-14T17:54:21.321Z,22.01
2018-09-14T17:56:48.957Z,21.99
2018-09-14T17:59:17.126Z,21.97
2018-09-14T18:01:45.069Z,21.97
2018-09-14T18:04:12.962Z,21.97
2018-09-14T18:06:40.795Z,21.96
2018-09-14T18:09:09.644Z,21.94
2018-09-14T18:11:37.875Z,21.93
2018-09-14T18:14:05.567Z,21.91
2018-09-14T18:16:33.551Z,21.90
2018-09-14T18:19:01.548Z,21.89
2018-09-14T18:21:29.239Z,21.88
2018-09-14T18:23:57.719Z,21.88
2018-09-14T18:26:25.740Z,21.87
2018-09-14T18:28:53.356Z,21.85
2018-09-14T18:31:21.017Z,21.84
2018-09-14T18:33:49.223Z,21.84
2018-09-14T18:36:17.065Z,21.83
2018-09-14T18:38:44.952Z,21.82
2018-09-14T18:41:12.875Z,21.80
2018-09-14T18:43:40.493Z,21.79
2018-09-14T18:46:08.142Z,21.79
2018-09-14T18:48:35.798Z,21.77
2018-09-14T18:51:03.633Z,21.77
2018-09-14T18:53:31.811Z,21.76
2018-09-14T18:55:59.422Z,21.75
2018-09-14T18:58:27.517Z,21.74
2018-09-14T19:00:55.624Z,21.74
2018-09-14T19:03:23.683Z,21.74
2018-09-14T19:05:51.827Z,21.73
2018-09-14T19:08:20.880Z,21.71
2018-09-14T19:10:48.803Z,21.70
2018-09-14T19:13:16.499Z,21.70
2018-09-14T19:15:44.198Z,21.69
2018-09-14T19:18:12.589Z,21.68
2018-09-14T19:20:40.322Z,21.68
2018-09-14T19:23:08.801Z,21.68
2018-09-14T19:25:36.833Z,21.66
2018-09-14T19:28:04.469Z,21.65
2018-09-14T19:30:32.437Z,21.64
2018-09-14T19:33:00.668Z,21.64
2018-09-14T19:35:28.348Z,21.63
2018-09-14T19:37:56.280Z,21.63
2018-09-14T19:40:24.091Z,21.62
2018-09-14T19:42:52.318Z,21.61
2018-09-14T19:45:20.017Z,21.61
2018-09-14T19:47:47.977Z,21.60
2018-09-14T19:50:15.741Z,21.61
2018-09-14T19:52:43.360Z,21.59
2018-09-14T19:55:11.058Z,21.58
2018-09-14T19:57:38.953Z,21.58
2018-09-14T20:00:07.527Z,21.58
2018-09-14T20:02:35.210Z,21.57
2018-09-14T20:05:03.167Z,21.57
2018-09-14T20:07:30.864Z,21.56
2018-09-14T20:09:58.502Z,21.54
2018-09-14T20:12:26.534Z,21.54
2018-09-14T20:14:54.159Z,21.54
2018-09-14T20:17:22.158Z,21.54
2018-09-14T20:19:50.212Z,21.53
2018-09-14T20:22:17.899Z,21.53
2018-09-14T20:24:45.878Z,21.53
2018-09-14T20:27:13.883Z,21.52
2018-09-14T20:29:41.649Z,21.52
2018-09-14T20:32:09.395Z,21.51
2018-09-14T20:34:37.297Z,21.49
2018-09-14T20:37:05.379Z,21.50
2018-09-14T20:39:33.057Z,21.48
2018-09-14T20:42:00.720Z,21.48
2018-09-14T20:44:28.677Z,21.48
2018-09-14T20:46:57.081Z,21.47
2018-09-14T20:49:25.152Z,21.47
2018-09-14T20:51:52.953Z,21.45
2018-09-14T20:54:20.561Z,21.45
2018-09-14T20:56:48.238Z,21.44
2018-09-14T20:59:16.230Z,21.44
2018-09-14T21:01:44.286Z,21.44
2018-09-14T21:04:11.999Z,21.44
2018-09-14T21:06:40.185Z,21.44
2018-09-14T21:09:08.974Z,21.43
2018-09-14T21:11:36.742Z,21.43
2018-09-14T21:14:04.393Z,21.44
2018-09-14T21:16:32.030Z,21.44
2018-09-14T21:18:59.939Z,21.44
2018-09-14T21:21:27.597Z,21.43
2018-09-14T21:23:55.829Z,21.43
2018-09-14T21:26:23.995Z,21.42
2018-09-14T21:28:51.638Z,21.42
2018-09-14T21:31:19.562Z,21.40
2018-09-14T21:33:47.248Z,21.40
2018-09-14T21:36:14.982Z,21.40
2018-09-14T21:38:42.603Z,21.41
2018-09-14T21:41:10.574Z,21.40
2018-09-14T21:43:38.256Z,21.41
2018-09-14T21:46:06.156Z,21.41
2018-09-14T21:48:34.088Z,21.40
2018-09-14T21:51:02.109Z,21.40
2018-09-14T21:53:30.037Z,21.40
2018-09-14T21:55:57.732Z,21.40
2018-09-14T21:58:25.754Z,21.40
2018-09-14T22:00:58.809Z,21.40
2018-09-14T22:03:27.026Z,21.39
2018-09-14T22:05:55.106Z,21.39
2018-09-14T22:08:22.766Z,21.40
2018-09-14T22:10:50.696Z,21.39
2018-09-14T22:13:18.382Z,21.38
2018-09-14T22:15:46.080Z,21.38
2018-09-14T22:18:14.121Z,21.38
2018-09-14T22:20:42.033Z,21.38
2018-09-14T22:23:09.672Z,21.38
2018-09-14T22:25:37.702Z,21.38
2018-09-14T22:28:05.865Z,21.37
2018-09-14T22:30:33.963Z,21.36
2018-09-14T22:33:01.843Z,21.37
2018-09-14T22:35:29.803Z,21.37
2018-09-14T22:37:57.505Z,21.36
2018-09-14T22:40:25.190Z,21.35
2018-09-14T22:42:52.875Z,21.36
2018-09-14T22:45:20.671Z,21.34
2018-09-14T22:47:48.581Z,21.35
2018-09-14T22:50:16.285Z,21.34
2018-09-14T22:52:44.221Z,21.33
2018-09-14T22:55:11.937Z,21.33
2018-09-14T22:57:39.665Z,21.33
2018-09-14T23:00:07.409Z,21.32
2018-09-14T23:02:35.350Z,21.32
2018-09-14T23:05:02.974Z,21.31
2018-09-14T23:07:30.967Z,21.30
2018-09-14T23:09:59.198Z,21.31
2018-09-14T23:12:27.170Z,21.29
2018-09-14T23:14:54.848Z,21.27
2018-09-14T23:17:22.526Z,21.27
2018-09-14T23:19:50.226Z,21.27
2018-09-14T23:22:17.908Z,21.25
2018-09-14T23:24:46.168Z,21.23
2018-09-14T23:27:14.179Z,21.24
2018-09-14T23:29:41.884Z,21.22
2018-09-14T23:32:09.538Z,21.21
2018-09-14T23:34:37.149Z,21.22
2018-09-14T23:37:05.121Z,21.21
2018-09-14T23:39:33.105Z,21.19
2018-09-14T23:42:00.783Z,21.18
2018-09-14T23:44:28.473Z,21.18
2018-09-14T23:46:56.404Z,21.15
2018-09-14T23:49:24.400Z,21.16
2018-09-14T23:51:52.883Z,21.15
2018-09-14T23:54:21.110Z,21.13
2018-09-14T23:56:48.790Z,21.13
2018-09-14T23:59:16.462Z,21.12
